Riviere-Saint-Jean, Canada
Current Conditions -  °F | °C
As of 9:00 PM on Monday 20 Oct 2014 (Local Time) from CYGV Reporting Station
Overcast Overcast  
Wind Chill: 31°   Ceiling: 8000
Heat Index: 41°   Visibility: 9mi
Dew Point: 37°   Wind: 24mph
Humidity: 87%   Direction: 260°W
Pressure: 29.52"   Gusts: 30mph
Location:  50.28°N, 64.33°W
Report Text: CYGV 210100Z AUTO 26021G26KT 9SM OVC080 05/03 A2952 RMK SLP997
Loading
Personal Weather Stations






























Interactive Weather Map New forecast layout! Learn more

10-Day Weather Forecast

Advertisements
Track Severe Weather on mobile